sensor_id;sensor_type;location;lat;lon;timestamp;pressure;altitude;pressure_sealevel;temperature;humidity
3444;BME280;1736;52.068;6.968;2023-03-18T00:01:04;100247.97;;;12.61;69.83
3444;BME280;1736;52.068;6.968;2023-03-18T00:03:33;100240.28;;;12.58;70.34
3444;BME280;1736;52.068;6.968;2023-03-18T00:06:03;100253.16;;;12.62;69.43
3444;BME280;1736;52.068;6.968;2023-03-18T00:08:29;100251.63;;;12.60;69.93
3444;BME280;1736;52.068;6.968;2023-03-18T00:10:58;100245.41;;;12.69;69.40
3444;BME280;1736;52.068;6.968;2023-03-18T00:13:25;100241.66;;;12.62;69.55
3444;BME280;1736;52.068;6.968;2023-03-18T00:15:52;100252.69;;;12.67;69.52
3444;BME280;1736;52.068;6.968;2023-03-18T00:18:19;100247.84;;;12.62;70.04
3444;BME280;1736;52.068;6.968;2023-03-18T00:20:45;100241.88;;;12.51;70.44
3444;BME280;1736;52.068;6.968;2023-03-18T00:23:12;100239.22;;;12.51;70.28
3444;BME280;1736;52.068;6.968;2023-03-18T00:25:39;100246.97;;;12.44;70.51
3444;BME280;1736;52.068;6.968;2023-03-18T00:28:08;100243.63;;;12.42;70.81
3444;BME280;1736;52.068;6.968;2023-03-18T00:30:37;100242.50;;;12.45;70.54
3444;BME280;1736;52.068;6.968;2023-03-18T00:33:04;100235.13;;;12.39;70.79
3444;BME280;1736;52.068;6.968;2023-03-18T00:35:31;100235.94;;;12.39;71.00
3444;BME280;1736;52.068;6.968;2023-03-18T00:37:58;100247.28;;;12.41;71.03
3444;BME280;1736;52.068;6.968;2023-03-18T00:40:28;100257.69;;;12.35;71.10
3444;BME280;1736;52.068;6.968;2023-03-18T00:43:09;100251.28;;;12.28;71.77
3444;BME280;1736;52.068;6.968;2023-03-18T00:45:37;100249.91;;;12.24;72.21
3444;BME280;1736;52.068;6.968;2023-03-18T00:48:05;100248.81;;;12.17;72.54
3444;BME280;1736;52.068;6.968;2023-03-18T00:50:33;100245.19;;;12.18;72.78
3444;BME280;1736;52.068;6.968;2023-03-18T00:53:00;100233.41;;;12.20;72.84
3444;BME280;1736;52.068;6.968;2023-03-18T00:55:26;100239.63;;;12.11;73.29
3444;BME280;1736;52.068;6.968;2023-03-18T00:57:53;100243.41;;;12.09;73.35
3444;BME280;1736;52.068;6.968;2023-03-18T01:00:21;100253.38;;;12.07;73.46
3444;BME280;1736;52.068;6.968;2023-03-18T01:02:50;100258.69;;;12.07;73.68
3444;BME280;1736;52.068;6.968;2023-03-18T01:05:17;100261.94;;;12.01;74.40
3444;BME280;1736;52.068;6.968;2023-03-18T01:07:44;100247.81;;;12.00;74.56
3444;BME280;1736;52.068;6.968;2023-03-18T01:10:12;100248.19;;;12.05;74.19
3444;BME280;1736;52.068;6.968;2023-03-18T01:12:40;100247.22;;;12.06;74.39
3444;BME280;1736;52.068;6.968;2023-03-18T01:15:08;100249.03;;;12.06;74.64
3444;BME280;1736;52.068;6.968;2023-03-18T01:17:38;100250.56;;;12.08;74.58
3444;BME280;1736;52.068;6.968;2023-03-18T01:20:08;100253.41;;;11.97;75.60
3444;BME280;1736;52.068;6.968;2023-03-18T01:22:35;100255.22;;;11.97;75.44
3444;BME280;1736;52.068;6.968;2023-03-18T01:25:04;100263.50;;;11.94;76.25
3444;BME280;1736;52.068;6.968;2023-03-18T01:27:30;100267.88;;;11.85;76.41
3444;BME280;1736;52.068;6.968;2023-03-18T01:29:57;100262.03;;;11.82;76.93
3444;BME280;1736;52.068;6.968;2023-03-18T01:32:25;100258.66;;;11.80;77.23
3444;BME280;1736;52.068;6.968;2023-03-18T01:34:53;100250.97;;;11.77;77.79
3444;BME280;1736;52.068;6.968;2023-03-18T01:37:19;100257.19;;;11.68;78.43
3444;BME280;1736;52.068;6.968;2023-03-18T01:39:46;100261.38;;;11.61;78.83
3444;BME280;1736;52.068;6.968;2023-03-18T01:42:13;100263.91;;;11.62;79.17
3444;BME280;1736;52.068;6.968;2023-03-18T01:44:42;100252.84;;;11.67;79.37
3444;BME280;1736;52.068;6.968;2023-03-18T01:47:10;100258.16;;;11.67;79.76
3444;BME280;1736;52.068;6.968;2023-03-18T01:49:40;100251.59;;;11.61;80.05
3444;BME280;1736;52.068;6.968;2023-03-18T01:52:16;100257.78;;;11.62;80.05
3444;BME280;1736;52.068;6.968;2023-03-18T01:54:47;100265.59;;;11.54;80.10
3444;BME280;1736;52.068;6.968;2023-03-18T01:57:15;100270.91;;;11.54;80.66
3444;BME280;1736;52.068;6.968;2023-03-18T01:59:45;100277.50;;;11.50;80.66
3444;BME280;1736;52.068;6.968;2023-03-18T02:02:14;100278.44;;;11.49;81.25
3444;BME280;1736;52.068;6.968;2023-03-18T02:04:43;100279.31;;;11.40;81.24
3444;BME280;1736;52.068;6.968;2023-03-18T02:07:15;100281.03;;;11.31;82.10
3444;BME280;1736;52.068;6.968;2023-03-18T02:09:42;100283.25;;;11.26;82.56
3444;BME280;1736;52.068;6.968;2023-03-18T02:12:10;100284.25;;;11.16;82.88
3444;BME280;1736;52.068;6.968;2023-03-18T02:14:38;100276.59;;;11.13;83.27
3444;BME280;1736;52.068;6.968;2023-03-18T02:17:08;100292.78;;;11.00;83.92
3444;BME280;1736;52.068;6.968;2023-03-18T02:19:46;100286.78;;;10.89;84.93
3444;BME280;1736;52.068;6.968;2023-03-18T02:22:22;100284.94;;;10.80;85.30
3444;BME280;1736;52.068;6.968;2023-03-18T02:24:57;100291.25;;;10.79;85.91
3444;BME280;1736;52.068;6.968;2023-03-18T02:27:27;100283.56;;;10.76;85.91
3444;BME280;1736;52.068;6.968;2023-03-18T02:29:57;100293.34;;;10.75;86.21
3444;BME280;1736;52.068;6.968;2023-03-18T02:32:26;100289.84;;;10.75;86.12
3444;BME280;1736;52.068;6.968;2023-03-18T02:34:54;100286.22;;;10.76;86.73
3444;BME280;1736;52.068;6.968;2023-03-18T02:37:21;100288.84;;;10.76;86.35
3444;BME280;1736;52.068;6.968;2023-03-18T02:39:48;100296.13;;;10.74;86.78
3444;BME280;1736;52.068;6.968;2023-03-18T02:42:14;100287.19;;;10.75;86.65
3444;BME280;1736;52.068;6.968;2023-03-18T02:44:44;100284.94;;;10.80;86.75
3444;BME280;1736;52.068;6.968;2023-03-18T02:47:16;100288.03;;;10.75;86.73
3444;BME280;1736;52.068;6.968;2023-03-18T02:49:44;100287.47;;;10.72;87.01
3444;BME280;1736;52.068;6.968;2023-03-18T02:52:10;100276.72;;;10.83;86.62
3444;BME280;1736;52.068;6.968;2023-03-18T02:54:37;100283.00;;;10.82;86.69
3444;BME280;1736;52.068;6.968;2023-03-18T02:57:04;100279.81;;;10.78;87.17
3444;BME280;1736;52.068;6.968;2023-03-18T02:59:30;100271.69;;;10.80;86.95
3444;BME280;1736;52.068;6.968;2023-03-18T03:01:59;100273.66;;;10.78;87.02
3444;BME280;1736;52.068;6.968;2023-03-18T03:04:26;100270.28;;;10.76;87.25
3444;BME280;1736;52.068;6.968;2023-03-18T03:06:54;100286.38;;;10.74;87.46
3444;BME280;1736;52.068;6.968;2023-03-18T03:09:21;100290.84;;;10.74;87.21
3444;BME280;1736;52.068;6.968;2023-03-18T03:11:48;100291.81;;;10.82;87.03
3444;BME280;1736;52.068;6.968;2023-03-18T03:14:15;100290.00;;;10.83;87.19
3444;BME280;1736;52.068;6.968;2023-03-18T03:16:42;100300.34;;;10.86;86.95
3444;BME280;1736;52.068;6.968;2023-03-18T03:19:10;100297.69;;;10.86;87.14
3444;BME280;1736;52.068;6.968;2023-03-18T03:21:37;100299.22;;;10.98;86.86
3444;BME280;1736;52.068;6.968;2023-03-18T03:24:04;100301.16;;;10.96;86.14
3444;BME280;1736;52.068;6.968;2023-03-18T03:26:31;100304.53;;;10.98;86.34
3444;BME280;1736;52.068;6.968;2023-03-18T03:28:59;100299.34;;;10.96;86.27
3444;BME280;1736;52.068;6.968;2023-03-18T03:31:26;100309.13;;;10.96;86.58
3444;BME280;1736;52.068;6.968;2023-03-18T03:33:52;100310.84;;;10.97;86.25
3444;BME280;1736;52.068;6.968;2023-03-18T03:36:20;100320.31;;;10.99;86.17
3444;BME280;1736;52.068;6.968;2023-03-18T03:38:47;100321.84;;;11.02;86.04
3444;BME280;1736;52.068;6.968;2023-03-18T03:41:15;100321.84;;;11.02;86.35
3444;BME280;1736;52.068;6.968;2023-03-18T03:43:42;100317.81;;;10.98;86.54
3444;BME280;1736;52.068;6.968;2023-03-18T03:46:09;100317.09;;;10.96;86.47
3444;BME280;1736;52.068;6.968;2023-03-18T03:48:37;100325.78;;;10.98;86.78
3444;BME280;1736;52.068;6.968;2023-03-18T03:51:04;100323.53;;;11.03;86.39
3444;BME280;1736;52.068;6.968;2023-03-18T03:53:33;100328.44;;;10.98;86.42
3444;BME280;1736;52.068;6.968;2023-03-18T03:56:01;100334.56;;;11.08;86.40
3444;BME280;1736;52.068;6.968;2023-03-18T03:58:28;100335.81;;;11.04;86.09
3444;BME280;1736;52.068;6.968;2023-03-18T04:00:55;100343.38;;;10.99;86.58
3444;BME280;1736;52.068;6.968;2023-03-18T04:03:21;100346.56;;;11.02;86.63
3444;BME280;1736;52.068;6.968;2023-03-18T04:05:49;100345.63;;;11.03;86.45
3444;BME280;1736;52.068;6.968;2023-03-18T04:08:16;100348.13;;;11.05;86.36
3444;BME280;1736;52.068;6.968;2023-03-18T04:10:44;100350.78;;;11.05;86.21
3444;BME280;1736;52.068;6.968;2023-03-18T04:13:11;100345.75;;;11.02;86.79
3444;BME280;1736;52.068;6.968;2023-03-18T04:15:37;100355.13;;;11.06;86.89
3444;BME280;1736;52.068;6.968;2023-03-18T04:18:04;100348.53;;;11.00;87.27
3444;BME280;1736;52.068;6.968;2023-03-18T04:20:32;100355.66;;;11.00;87.62
3444;BME280;1736;52.068;6.968;2023-03-18T04:23:00;100349.81;;;11.06;87.10
3444;BME280;1736;52.068;6.968;2023-03-18T04:25:27;100351.19;;;11.00;87.56
3444;BME280;1736;52.068;6.968;2023-03-18T04:27:55;100344.22;;;10.99;87.92
3444;BME280;1736;52.068;6.968;2023-03-18T04:30:21;100344.34;;;10.98;87.77
3444;BME280;1736;52.068;6.968;2023-03-18T04:32:49;100351.59;;;10.96;88.22
3444;BME280;1736;52.068;6.968;2023-03-18T04:35:16;100353.31;;;10.97;88.13
3444;BME280;1736;52.068;6.968;2023-03-18T04:37:43;100357.63;;;10.98;88.71
3444;BME280;1736;52.068;6.968;2023-03-18T04:40:11;100355.09;;;10.96;88.96
3444;BME280;1736;52.068;6.968;2023-03-18T04:42:38;100363.47;;;10.92;90.18
3444;BME280;1736;52.068;6.968;2023-03-18T04:45:07;100358.16;;;10.92;91.42
3444;BME280;1736;52.068;6.968;2023-03-18T04:47:33;100351.88;;;10.83;92.79
3444;BME280;1736;52.068;6.968;2023-03-18T04:50:01;100354.53;;;10.74;94.52
3444;BME280;1736;52.068;6.968;2023-03-18T04:52:28;100349.75;;;10.68;95.64
3444;BME280;1736;52.068;6.968;2023-03-18T04:54:55;100339.69;;;10.62;96.79
3444;BME280;1736;52.068;6.968;2023-03-18T04:57:22;100357.00;;;10.56;98.10
3444;BME280;1736;52.068;6.968;2023-03-18T04:59:49;100359.09;;;10.52;99.07
3444;BME280;1736;52.068;6.968;2023-03-18T05:02:17;100363.16;;;10.57;99.66
3444;BME280;1736;52.068;6.968;2023-03-18T05:04:44;100366.47;;;10.49;100.00
3444;BME280;1736;52.068;6.968;2023-03-18T05:07:11;100371.06;;;10.47;100.00
3444;BME280;1736;52.068;6.968;2023-03-18T05:09:39;100367.72;;;10.54;100.00
3444;BME280;1736;52.068;6.968;2023-03-18T05:12:11;100361.88;;;10.51;100.00
3444;BME280;1736;52.068;6.968;2023-03-18T05:14:39;100368.84;;;10.52;100.00
3444;BME280;1736;52.068;6.968;2023-03-18T05:17:06;100367.03;;;10.52;100.00
3444;BME280;1736;52.068;6.968;2023-03-18T05:19:34;100377.66;;;10.52;100.00
3444;BME280;1736;52.068;6.968;2023-03-18T05:22:01;100371.38;;;10.53;100.00
3444;BME280;1736;52.068;6.968;2023-03-18T05:24:27;100374.28;;;10.50;100.00
3444;BME280;1736;52.068;6.968;2023-03-18T05:26:54;100371.63;;;10.50;100.00
3444;BME280;1736;52.068;6.968;2023-03-18T05:29:21;100377.06;;;10.49;100.00
3444;BME280;1736;52.068;6.968;2023-03-18T05:31:48;100379.59;;;10.50;100.00
3444;BME280;1736;52.068;6.968;2023-03-18T05:34:14;100385.19;;;10.57;100.00
3444;BME280;1736;52.068;6.968;2023-03-18T05:36:42;100370.38;;;10.54;100.00
3444;BME280;1736;52.068;6.968;2023-03-18T05:39:09;100374.03;;;10.53;100.00
3444;BME280;1736;52.068;6.968;2023-03-18T05:41:36;100390.50;;;10.57;100.00
3444;BME280;1736;52.068;6.968;2023-03-18T05:44:03;100378.78;;;10.59;100.00
3444;BME280;1736;52.068;6.968;2023-03-18T05:46:30;100380.75;;;10.57;100.00
3444;BME280;1736;52.068;6.968;2023-03-18T05:48:56;100380.75;;;10.57;100.00
3444;BME280;1736;52.068;6.968;2023-03-18T05:51:23;100377.09;;;10.58;100.00
3444;BME280;1736;52.068;6.968;2023-03-18T05:53:52;100382.41;;;10.58;100.00
3444;BME280;1736;52.068;6.968;2023-03-18T05:56:18;100403.63;;;10.58;100.00
3444;BME280;1736;52.068;6.968;2023-03-18T05:58:45;100399.69;;;10.53;100.00
3444;BME280;1736;52.068;6.968;2023-03-18T06:01:12;100398.47;;;10.57;100.00
3444;BME280;1736;52.068;6.968;2023-03-18T06:03:39;100391.47;;;10.56;100.00
3444;BME280;1736;52.068;6.968;2023-03-18T06:06:06;100400.00;;;10.59;100.00
3444;BME280;1736;52.068;6.968;2023-03-18T06:08:33;100401.41;;;10.63;100.00
3444;BME280;1736;52.068;6.968;2023-03-18T06:11:01;100406.03;;;10.62;100.00
3444;BME280;1736;52.068;6.968;2023-03-18T06:13:28;100411.47;;;10.60;100.00
3444;BME280;1736;52.068;6.968;2023-03-18T06:15:56;100404.75;;;10.56;100.00
3444;BME280;1736;52.068;6.968;2023-03-18T06:18:23;100404.50;;;10.59;100.00
3444;BME280;1736;52.068;6.968;2023-03-18T06:20:49;100404.63;;;10.57;100.00
3444;BME280;1736;52.068;6.968;2023-03-18T06:23:16;100419.84;;;10.56;100.00
3444;BME280;1736;52.068;6.968;2023-03-18T06:25:43;100417.63;;;10.61;100.00
3444;BME280;1736;52.068;6.968;2023-03-18T06:28:12;100417.31;;;10.63;100.00
3444;BME280;1736;52.068;6.968;2023-03-18T06:30:38;100419.97;;;10.63;100.00
3444;BME280;1736;52.068;6.968;2023-03-18T06:33:06;100419.03;;;10.65;100.00
3444;BME280;1736;52.068;6.968;2023-03-18T06:35:32;100423.78;;;10.71;100.00
3444;BME280;1736;52.068;6.968;2023-03-18T06:37:59;100428.84;;;10.74;100.00
3444;BME280;1736;52.068;6.968;2023-03-18T06:40:27;100428.69;;;10.75;100.00
3444;BME280;1736;52.068;6.968;2023-03-18T06:42:54;100437.22;;;10.79;100.00
3444;BME280;1736;52.068;6.968;2023-03-18T06:45:22;100439.75;;;10.80;100.00
3444;BME280;1736;52.068;6.968;2023-03-18T06:47:49;100436.66;;;10.75;100.00
3444;BME280;1736;52.068;6.968;2023-03-18T06:50:16;100440.84;;;10.78;100.00
3444;BME280;1736;52.068;6.968;2023-03-18T06:52:43;100442.00;;;10.85;100.00
3444;BME280;1736;52.068;6.968;2023-03-18T06:55:09;100439.34;;;10.85;100.00
3444;BME280;1736;52.068;6.968;2023-03-18T06:57:36;100444.53;;;10.96;100.00
3444;BME280;1736;52.068;6.968;2023-03-18T07:00:04;100450.56;;;10.98;100.00
3444;BME280;1736;52.068;6.968;2023-03-18T07:02:32;100459.66;;;11.05;100.00
3444;BME280;1736;52.068;6.968;2023-03-18T07:04:58;100472.34;;;11.01;100.00
3444;BME280;1736;52.068;6.968;2023-03-18T07:07:26;100477.00;;;11.09;100.00
3444;BME280;1736;52.068;6.968;2023-03-18T07:09:53;100466.94;;;11.12;100.00
3444;BME280;1736;52.068;6.968;2023-03-18T07:12:19;100471.00;;;11.16;100.00
3444;BME280;1736;52.068;6.968;2023-03-18T07:14:46;100460.25;;;11.18;100.00
3444;BME280;1736;52.068;6.968;2023-03-18T07:17:13;100464.72;;;11.36;100.00
3444;BME280;1736;52.068;6.968;2023-03-18T07:19:41;100466.13;;;11.40;100.00
3444;BME280;1736;52.068;6.968;2023-03-18T07:22:08;100466.69;;;11.44;100.00
3444;BME280;1736;52.068;6.968;2023-03-18T07:24:35;100473.53;;;11.56;100.00
3444;BME280;1736;52.068;6.968;2023-03-18T07:27:02;100471.78;;;11.66;100.00
3444;BME280;1736;52.068;6.968;2023-03-18T07:29:29;100482.09;;;11.69;100.00
3444;BME280;1736;52.068;6.968;2023-03-18T07:31:56;100480.16;;;11.71;99.97
3444;BME280;1736;52.068;6.968;2023-03-18T07:34:22;100474.28;;;11.67;99.67
3444;BME280;1736;52.068;6.968;2023-03-18T07:36:50;100477.66;;;11.69;99.71
3444;BME280;1736;52.068;6.968;2023-03-18T07:39:17;100487.41;;;11.69;99.93
3444;BME280;1736;52.068;6.968;2023-03-18T07:41:43;100475.94;;;11.59;99.64
3444;BME280;1736;52.068;6.968;2023-03-18T07:44:10;100494.13;;;11.73;99.14
3444;BME280;1736;52.068;6.968;2023-03-18T07:46:37;100491.47;;;11.82;98.56
3444;BME280;1736;52.068;6.968;2023-03-18T07:49:03;100501.13;;;11.93;97.91
3444;BME280;1736;52.068;6.968;2023-03-18T07:51:30;100497.22;;;11.97;97.89
3444;BME280;1736;52.068;6.968;2023-03-18T07:53:58;100492.69;;;12.26;96.08
3444;BME280;1736;52.068;6.968;2023-03-18T07:56:24;100501.53;;;12.17;95.83
3444;BME280;1736;52.068;6.968;2023-03-18T07:58:51;100497.59;;;12.21;95.61
3444;BME280;1736;52.068;6.968;2023-03-18T08:01:18;100503.47;;;12.24;95.13
3444;BME280;1736;52.068;6.968;2023-03-18T08:03:45;100497.44;;;12.32;94.82
3444;BME280;1736;52.068;6.968;2023-03-18T08:06:12;100502.50;;;12.35;94.63
3444;BME280;1736;52.068;6.968;2023-03-18T08:08:40;100508.88;;;12.51;94.72
3444;BME280;1736;52.068;6.968;2023-03-18T08:11:08;100502.28;;;12.46;94.33
3444;BME280;1736;52.068;6.968;2023-03-18T08:13:35;100501.59;;;12.53;94.35
3444;BME280;1736;52.068;6.968;2023-03-18T08:16:01;100496.91;;;12.65;93.87
3444;BME280;1736;52.068;6.968;2023-03-18T08:18:28;100500.16;;;12.59;93.23
3444;BME280;1736;52.068;6.968;2023-03-18T08:20:55;100506.97;;;12.71;93.36
3444;BME280;1736;52.068;6.968;2023-03-18T08:23:22;100519.00;;;12.75;92.54
3444;BME280;1736;52.068;6.968;2023-03-18T08:25:49;100513.66;;;12.84;92.54
3444;BME280;1736;52.068;6.968;2023-03-18T08:28:18;100521.88;;;12.64;92.72
3444;BME280;1736;52.068;6.968;2023-03-18T08:30:45;100513.97;;;12.81;92.33
3444;BME280;1736;52.068;6.968;2023-03-18T08:33:12;100521.88;;;12.91;91.76
3444;BME280;1736;52.068;6.968;2023-03-18T08:35:39;100528.97;;;12.73;92.12
3444;BME280;1736;52.068;6.968;2023-03-18T08:38:06;100528.69;;;12.76;92.58
3444;BME280;1736;52.068;6.968;2023-03-18T08:40:33;100542.06;;;12.93;92.46
3444;BME280;1736;52.068;6.968;2023-03-18T08:43:00;100546.41;;;12.94;91.76
3444;BME280;1736;52.068;6.968;2023-03-18T08:45:27;100542.63;;;12.97;91.91
3444;BME280;1736;52.068;6.968;2023-03-18T08:47:54;100542.91;;;13.03;91.46
3444;BME280;1736;52.068;6.968;2023-03-18T08:50:21;100543.69;;;13.13;91.41
3444;BME280;1736;52.068;6.968;2023-03-18T08:52:53;100546.44;;;13.21;90.60
3444;BME280;1736;52.068;6.968;2023-03-18T08:55:21;100549.34;;;13.55;89.62
3444;BME280;1736;52.068;6.968;2023-03-18T08:57:47;100548.81;;;13.51;90.46
3444;BME280;1736;52.068;6.968;2023-03-18T09:00:15;100547.56;;;13.73;89.56
3444;BME280;1736;52.068;6.968;2023-03-18T09:02:43;100555.69;;;13.89;88.97
3444;BME280;1736;52.068;6.968;2023-03-18T09:05:10;100540.91;;;13.94;87.73
3444;BME280;1736;52.068;6.968;2023-03-18T09:07:37;100542.19;;;14.08;87.15
3444;BME280;1736;52.068;6.968;2023-03-18T09:10:04;100552.25;;;14.31;85.83
3444;BME280;1736;52.068;6.968;2023-03-18T09:12:31;100548.47;;;14.34;85.73
3444;BME280;1736;52.068;6.968;2023-03-18T09:14:58;100539.22;;;14.11;85.49
3444;BME280;1736;52.068;6.968;2023-03-18T09:17:26;100547.09;;;13.95;85.89
3444;BME280;1736;52.068;6.968;2023-03-18T09:19:55;100552.19;;;13.88;86.83
3444;BME280;1736;52.068;6.968;2023-03-18T09:22:21;100549.97;;;13.84;86.99
3444;BME280;1736;52.068;6.968;2023-03-18T09:24:48;100550.88;;;13.75;88.02
3444;BME280;1736;52.068;6.968;2023-03-18T09:27:14;100549.44;;;13.80;88.92
3444;BME280;1736;52.068;6.968;2023-03-18T09:29:41;100556.38;;;13.91;88.51
3444;BME280;1736;52.068;6.968;2023-03-18T09:32:08;100552.88;;;13.90;87.73
3444;BME280;1736;52.068;6.968;2023-03-18T09:34:34;100553.72;;;13.91;87.44
3444;BME280;1736;52.068;6.968;2023-03-18T09:37:03;100566.34;;;14.06;87.13
3444;BME280;1736;52.068;6.968;2023-03-18T09:39:29;100560.44;;;14.30;85.75
3444;BME280;1736;52.068;6.968;2023-03-18T09:42:08;100570.25;;;14.47;84.30
3444;BME280;1736;52.068;6.968;2023-03-18T09:44:40;100562.34;;;14.63;83.09
3444;BME280;1736;52.068;6.968;2023-03-18T09:47:22;100570.66;;;14.60;83.02
3444;BME280;1736;52.068;6.968;2023-03-18T09:50:08;100565.63;;;14.57;82.76
3444;BME280;1736;52.068;6.968;2023-03-18T09:52:44;100565.28;;;14.34;83.44
3444;BME280;1736;52.068;6.968;2023-03-18T09:55:20;100555.56;;;14.25;83.08
3444;BME280;1736;52.068;6.968;2023-03-18T09:57:50;100551.94;;;14.17;82.28
3444;BME280;1736;52.068;6.968;2023-03-18T10:00:21;100564.91;;;14.12;82.33
3444;BME280;1736;52.068;6.968;2023-03-18T10:02:52;100566.56;;;14.13;82.37
3444;BME280;1736;52.068;6.968;2023-03-18T10:05:24;100577.50;;;14.02;82.86
3444;BME280;1736;52.068;6.968;2023-03-18T10:08:00;100571.31;;;14.19;81.02
3444;BME280;1736;52.068;6.968;2023-03-18T10:10:31;100575.16;;;14.34;80.08
3444;BME280;1736;52.068;6.968;2023-03-18T10:13:04;100576.25;;;14.49;80.14
3444;BME280;1736;52.068;6.968;2023-03-18T10:15:38;100577.25;;;14.48;80.27
3444;BME280;1736;52.068;6.968;2023-03-18T10:18:10;100579.28;;;14.54;79.58
3444;BME280;1736;52.068;6.968;2023-03-18T10:20:50;100577.25;;;14.48;79.59
3444;BME280;1736;52.068;6.968;2023-03-18T10:23:26;100586.88;;;14.41;80.43
3444;BME280;1736;52.068;6.968;2023-03-18T10:26:02;100576.06;;;14.68;80.43
3444;BME280;1736;52.068;6.968;2023-03-18T10:28:57;100587.66;;;15.10;78.63
3444;BME280;1736;52.068;6.968;2023-03-18T10:31:37;100587.78;;;15.34;76.44
3444;BME280;1736;52.068;6.968;2023-03-18T10:34:09;100592.38;;;15.50;75.36
3444;BME280;1736;52.068;6.968;2023-03-18T10:36:42;100590.63;;;15.74;75.04
3444;BME280;1736;52.068;6.968;2023-03-18T10:39:19;100582.63;;;15.82;73.93
3444;BME280;1736;52.068;6.968;2023-03-18T10:41:47;100591.50;;;15.91;73.75
3444;BME280;1736;52.068;6.968;2023-03-18T10:44:17;100589.38;;;16.18;72.07
3444;BME280;1736;52.068;6.968;2023-03-18T10:46:46;100594.59;;;16.44;69.77
3444;BME280;1736;52.068;6.968;2023-03-18T10:49:15;100593.75;;;16.43;68.87
3444;BME280;1736;52.068;6.968;2023-03-18T10:51:48;100589.72;;;16.71;68.15
3444;BME280;1736;52.068;6.968;2023-03-18T10:54:22;100591.88;;;16.76;67.29
3444;BME280;1736;52.068;6.968;2023-03-18T10:56:51;100597.03;;;16.93;66.31
3444;BME280;1736;52.068;6.968;2023-03-18T10:59:20;100607.06;;;17.07;66.19
3444;BME280;1736;52.068;6.968;2023-03-18T11:01:50;100609.13;;;16.81;65.70
3444;BME280;1736;52.068;6.968;2023-03-18T11:04:20;100598.72;;;16.94;66.56
3444;BME280;1736;52.068;6.968;2023-03-18T11:06:49;100598.75;;;16.86;66.76
3444;BME280;1736;52.068;6.968;2023-03-18T11:09:20;100598.84;;;17.09;66.08
3444;BME280;1736;52.068;6.968;2023-03-18T11:11:48;100591.44;;;17.19;64.84
3444;BME280;1736;52.068;6.968;2023-03-18T11:14:18;100589.78;;;17.18;65.60
3444;BME280;1736;52.068;6.968;2023-03-18T11:16:48;100589.97;;;17.08;65.76
3444;BME280;1736;52.068;6.968;2023-03-18T11:19:26;100581.94;;;17.00;65.58
3444;BME280;1736;52.068;6.968;2023-03-18T11:22:02;100591.66;;;16.93;65.29
3444;BME280;1736;52.068;6.968;2023-03-18T11:24:32;100596.88;;;16.95;65.33
3444;BME280;1736;52.068;6.968;2023-03-18T11:27:21;100597.88;;;17.02;64.58
3444;BME280;1736;52.068;6.968;2023-03-18T11:29:54;100590.63;;;17.10;65.45
3444;BME280;1736;52.068;6.968;2023-03-18T11:32:24;100581.91;;;17.16;63.32
3444;BME280;1736;52.068;6.968;2023-03-18T11:34:53;100579.19;;;17.24;63.44
3444;BME280;1736;52.068;6.968;2023-03-18T11:37:25;100578.88;;;17.19;64.04
3444;BME280;1736;52.068;6.968;2023-03-18T11:40:05;100574.31;;;17.28;62.91
3444;BME280;1736;52.068;6.968;2023-03-18T11:42:33;100572.84;;;17.17;63.68
3444;BME280;1736;52.068;6.968;2023-03-18T11:45:01;100568.16;;;17.19;63.31
3444;BME280;1736;52.068;6.968;2023-03-18T11:47:31;100565.09;;;17.22;62.47
3444;BME280;1736;52.068;6.968;2023-03-18T11:50:01;100563.78;;;17.18;62.46
3444;BME280;1736;52.068;6.968;2023-03-18T11:52:35;100564.19;;;16.99;62.70
3444;BME280;1736;52.068;6.968;2023-03-18T11:55:16;100558.53;;;16.86;62.34
3444;BME280;1736;52.068;6.968;2023-03-18T11:58:07;100551.22;;;16.56;62.76
3444;BME280;1736;52.068;6.968;2023-03-18T12:00:43;100558.25;;;16.41;62.92
3444;BME280;1736;52.068;6.968;2023-03-18T12:06:19;100567.41;;;16.15;64.79
3444;BME280;1736;52.068;6.968;2023-03-18T12:08:56;100560.41;;;16.14;65.26
3444;BME280;1736;52.068;6.968;2023-03-18T12:11:39;100560.94;;;16.25;66.46
3444;BME280;1736;52.068;6.968;2023-03-18T12:14:15;100565.31;;;16.42;65.24
3444;BME280;1736;52.068;6.968;2023-03-18T12:16:54;100560.59;;;16.52;64.11
3444;BME280;1736;52.068;6.968;2023-03-18T12:19:45;100567.63;;;16.53;64.02
3444;BME280;1736;52.068;6.968;2023-03-18T12:22:31;100557.91;;;16.52;64.19
3444;BME280;1736;52.068;6.968;2023-03-18T12:25:10;100555.56;;;16.49;63.59
3444;BME280;1736;52.068;6.968;2023-03-18T12:27:45;100559.56;;;16.37;64.46
3444;BME280;1736;52.068;6.968;2023-03-18T12:30:34;100559.25;;;16.56;64.78
3444;BME280;1736;52.068;6.968;2023-03-18T12:33:09;100563.97;;;16.54;63.81
3444;BME280;1736;52.068;6.968;2023-03-18T12:35:52;100563.59;;;16.57;63.75
3444;BME280;1736;52.068;6.968;2023-03-18T12:38:59;100571.28;;;16.68;62.68
3444;BME280;1736;52.068;6.968;2023-03-18T12:41:33;100570.91;;;16.95;62.82
3444;BME280;1736;52.068;6.968;2023-03-18T12:44:19;100566.75;;;16.85;62.49
3444;BME280;1736;52.068;6.968;2023-03-18T12:46:52;100559.81;;;16.98;62.14
3444;BME280;1736;52.068;6.968;2023-03-18T12:49:22;100560.78;;;17.13;62.23
3444;BME280;1736;52.068;6.968;2023-03-18T12:51:56;100562.81;;;17.11;60.18
3444;BME280;1736;52.068;6.968;2023-03-18T12:54:29;100563.16;;;17.08;61.65
3444;BME280;1736;52.068;6.968;2023-03-18T12:57:00;100559.22;;;16.80;61.97
3444;BME280;1736;52.068;6.968;2023-03-18T12:59:35;100560.22;;;16.79;62.21
3444;BME280;1736;52.068;6.968;2023-03-18T13:02:18;100554.50;;;16.90;62.32
3444;BME280;1736;52.068;6.968;2023-03-18T13:04:53;100554.09;;;17.09;62.07
3444;BME280;1736;52.068;6.968;2023-03-18T13:07:25;100549.59;;;17.10;61.77
3444;BME280;1736;52.068;6.968;2023-03-18T13:10:02;100553.75;;;17.12;61.41
3444;BME280;1736;52.068;6.968;2023-03-18T13:12:34;100551.13;;;16.96;61.13
3444;BME280;1736;52.068;6.968;2023-03-18T13:15:09;100548.44;;;16.96;61.24
3444;BME280;1736;52.068;6.968;2023-03-18T13:17:39;100553.28;;;17.09;60.77
3444;BME280;1736;52.068;6.968;2023-03-18T13:20:11;100550.78;;;16.99;61.52
3444;BME280;1736;52.068;6.968;2023-03-18T13:23:04;100550.53;;;17.25;60.60
3444;BME280;1736;52.068;6.968;2023-03-18T13:25:38;100554.69;;;17.43;59.72